createdAt,value
2022-11-20T00:00:11.081Z,17.36
2022-11-20T00:01:11.074Z,17.27
2022-11-20T00:02:11.124Z,17.18
2022-11-20T00:03:11.071Z,17.36
2022-11-20T00:04:11.079Z,17.27
2022-11-20T00:05:11.085Z,17.18
2022-11-20T00:06:11.081Z,17.46
2022-11-20T00:07:11.128Z,17.46
2022-11-20T00:08:11.100Z,17.36
2022-11-20T00:09:11.073Z,17.46
2022-11-20T00:10:11.082Z,17.26
2022-11-20T00:11:15.498Z,17.36
2022-11-20T00:12:11.077Z,17.36
2022-11-20T00:13:11.069Z,17.18
2022-11-20T00:14:11.078Z,17.36
2022-11-20T00:15:11.072Z,17.46
2022-11-20T00:16:11.080Z,17.26
2022-11-20T00:17:11.073Z,17.36
2022-11-20T00:18:11.075Z,17.26
2022-11-20T00:19:11.070Z,17.46
2022-11-20T00:20:11.074Z,17.46
2022-11-20T00:21:11.067Z,17.46
2022-11-20T00:22:11.075Z,17.46
2022-11-20T00:23:11.066Z,17.36
2022-11-20T00:24:11.098Z,17.27
2022-11-20T00:25:11.066Z,17.27
2022-11-20T00:26:11.075Z,17.26
2022-11-20T00:27:11.066Z,17.36
2022-11-20T00:28:11.073Z,17.36
2022-11-20T00:29:11.072Z,17.27
2022-11-20T00:30:14.747Z,17.36
2022-11-20T00:31:11.065Z,17.26
2022-11-20T00:32:11.071Z,17.36
2022-11-20T00:33:11.065Z,17.26
2022-11-20T00:34:11.072Z,17.36
2022-11-20T00:35:11.064Z,17.16
2022-11-20T00:36:11.072Z,17.36
2022-11-20T00:37:11.063Z,17.36
2022-11-20T00:38:11.072Z,17.36
2022-11-20T00:39:11.066Z,17.36
2022-11-20T00:40:11.089Z,17.27
2022-11-20T00:41:11.064Z,17.16
2022-11-20T00:42:11.070Z,17.36
2022-11-20T00:43:11.062Z,17.36
2022-11-20T00:44:11.069Z,17.27
2022-11-20T00:45:11.064Z,17.27
2022-11-20T00:46:11.069Z,17.26
2022-11-20T00:47:11.059Z,17.36
2022-11-20T00:48:11.067Z,17.36
2022-11-20T00:49:11.061Z,17.36
2022-11-20T00:50:11.069Z,17.27
2022-11-20T00:51:11.058Z,17.26
2022-11-20T00:52:11.066Z,17.36
2022-11-20T00:53:11.057Z,17.26
2022-11-20T00:54:11.069Z,17.27
2022-11-20T00:55:11.057Z,17.46
2022-11-20T00:56:11.088Z,17.26
2022-11-20T00:57:11.059Z,17.46
2022-11-20T00:58:14.313Z,17.27
2022-11-20T00:59:11.057Z,17.36
2022-11-20T01:00:11.066Z,17.26
2022-11-20T01:01:11.101Z,17.46
2022-11-20T01:02:11.067Z,17.36
2022-11-20T01:03:11.055Z,17.26
2022-11-20T01:04:11.069Z,17.46
2022-11-20T01:05:11.056Z,17.26
2022-11-20T01:06:11.065Z,17.27
2022-11-20T01:07:11.110Z,17.26
2022-11-20T01:08:11.063Z,17.36
2022-11-20T01:09:11.053Z,17.27
2022-11-20T01:10:11.063Z,17.26
2022-11-20T01:11:11.052Z,17.46
2022-11-20T01:12:11.084Z,17.46
2022-11-20T01:13:11.053Z,17.36
2022-11-20T01:14:11.059Z,17.36
2022-11-20T01:15:11.052Z,17.46
2022-11-20T01:16:11.059Z,17.27
2022-11-20T01:17:11.052Z,17.18
2022-11-20T01:18:11.060Z,17.16
2022-11-20T01:19:12.192Z,17.46
2022-11-20T01:20:11.058Z,17.36
2022-11-20T01:21:11.050Z,17.27
2022-11-20T01:22:11.058Z,17.27
2022-11-20T01:23:11.049Z,17.27
2022-11-20T01:24:11.058Z,17.36
2022-11-20T01:25:11.049Z,17.16
2022-11-20T01:26:11.058Z,17.27
2022-11-20T01:27:11.048Z,17.26
2022-11-20T01:28:11.057Z,17.18
2022-11-20T01:29:11.048Z,17.26
2022-11-20T01:30:11.056Z,17.16
2022-11-20T01:31:11.047Z,17.27
2022-11-20T01:32:11.054Z,17.18
2022-11-20T01:33:11.046Z,17.18
2022-11-20T01:34:11.059Z,17.26
2022-11-20T01:35:11.046Z,17.18
2022-11-20T01:36:11.054Z,17.07
2022-11-20T01:37:11.045Z,17.18
2022-11-20T01:38:11.053Z,17.26
2022-11-20T01:39:11.045Z,17.18
2022-11-20T01:40:11.057Z,17.27
2022-11-20T01:41:11.045Z,17.26
2022-11-20T01:42:11.052Z,17.26
2022-11-20T01:43:11.043Z,17.16
2022-11-20T01:44:11.051Z,17.27
2022-11-20T01:45:11.043Z,17.18
2022-11-20T01:46:11.051Z,17.18
2022-11-20T01:47:11.044Z,17.18
2022-11-20T01:48:11.050Z,17.26
2022-11-20T01:49:11.044Z,17.27
2022-11-20T01:50:11.049Z,17.18
2022-11-20T01:51:11.043Z,17.27
2022-11-20T01:52:11.048Z,17.26
2022-11-20T01:53:11.041Z,17.16
2022-11-20T01:54:11.047Z,17.18
2022-11-20T01:55:11.042Z,17.18
2022-11-20T01:56:11.047Z,17.26
2022-11-20T01:57:11.040Z,17.26
2022-11-20T01:58:11.047Z,17.27
2022-11-20T01:59:11.048Z,17.16
2022-11-20T02:00:11.049Z,17.16
2022-11-20T02:01:11.108Z,17.08
2022-11-20T02:02:11.046Z,17.18
2022-11-20T02:03:11.040Z,17.26
2022-11-20T02:04:11.045Z,17.27
2022-11-20T02:05:11.037Z,16.97
2022-11-20T02:06:11.045Z,17.27
2022-11-20T02:07:11.058Z,17.26
2022-11-20T02:08:11.044Z,16.98
2022-11-20T02:09:11.036Z,17.26
2022-11-20T02:10:11.045Z,16.97
2022-11-20T02:11:11.037Z,16.97
2022-11-20T02:12:11.043Z,17.07
2022-11-20T02:13:11.036Z,17.08
2022-11-20T02:14:11.042Z,17.08
2022-11-20T02:15:11.034Z,17.16
2022-11-20T02:16:11.042Z,17.07
2022-11-20T02:17:11.035Z,17.26
2022-11-20T02:18:11.045Z,17.08
2022-11-20T02:19:11.036Z,17.16
2022-11-20T02:20:11.044Z,17.07
2022-11-20T02:21:11.034Z,17.16
2022-11-20T02:22:11.042Z,17.16
2022-11-20T02:23:11.032Z,17.18
2022-11-20T02:24:11.043Z,17.26
2022-11-20T02:25:11.032Z,17.16
2022-11-20T02:26:11.043Z,17.26
2022-11-20T02:27:11.032Z,17.16
2022-11-20T02:28:11.038Z,17.18
2022-11-20T02:29:11.032Z,17.16
2022-11-20T02:30:11.038Z,17.27
2022-11-20T02:31:11.031Z,17.16
2022-11-20T02:32:11.037Z,17.26
2022-11-20T02:33:11.030Z,17.18
2022-11-20T02:34:11.039Z,17.18
2022-11-20T02:35:11.030Z,17.18
2022-11-20T02:36:11.039Z,17.16
2022-11-20T02:37:11.028Z,17.16
2022-11-20T02:38:11.037Z,17.18
2022-11-20T02:39:11.027Z,17.16
2022-11-20T02:40:11.040Z,17.16
2022-11-20T02:41:11.027Z,17.16
2022-11-20T02:42:11.035Z,17.16
2022-11-20T02:43:11.026Z,17.07
2022-11-20T02:44:11.032Z,17.27
2022-11-20T02:45:11.026Z,17.16
2022-11-20T02:46:11.033Z,17.27
2022-11-20T02:47:11.024Z,17.18
2022-11-20T02:48:11.032Z,17.18
2022-11-20T02:49:11.026Z,17.18
2022-11-20T02:50:11.033Z,17.18
2022-11-20T02:51:11.024Z,17.16
2022-11-20T02:52:11.032Z,17.08
2022-11-20T02:53:11.031Z,17.07
2022-11-20T02:54:11.025Z,17.08
2022-11-20T02:55:11.033Z,16.97
2022-11-20T02:56:11.022Z,17.18
2022-11-20T02:57:11.029Z,16.98
2022-11-20T02:58:11.022Z,16.97
2022-11-20T02:59:11.028Z,17.07
2022-11-20T03:00:11.021Z,16.97
2022-11-20T03:01:11.117Z,17.08
2022-11-20T03:02:11.021Z,17.07
2022-11-20T03:03:11.028Z,17.08
2022-11-20T03:04:11.019Z,16.97
2022-11-20T03:05:11.033Z,16.97
2022-11-20T03:06:11.019Z,16.78
2022-11-20T03:07:11.130Z,16.88
2022-11-20T03:08:11.022Z,16.98
2022-11-20T03:09:11.027Z,16.97
2022-11-20T03:10:11.021Z,16.98
2022-11-20T03:11:11.040Z,16.78
2022-11-20T03:12:11.017Z,16.88
2022-11-20T03:13:11.031Z,16.87
2022-11-20T03:14:11.017Z,16.87
2022-11-20T03:15:11.024Z,16.87
2022-11-20T03:16:11.018Z,16.88
2022-11-20T03:17:11.027Z,16.78
2022-11-20T03:18:11.016Z,16.69
2022-11-20T03:19:11.025Z,16.68
2022-11-20T03:20:11.015Z,16.78
2022-11-20T03:21:11.024Z,16.69
2022-11-20T03:22:11.015Z,16.68
2022-11-20T03:23:11.024Z,16.69
2022-11-20T03:24:11.013Z,16.68
2022-11-20T03:25:11.021Z,16.59
2022-11-20T03:26:11.015Z,16.68
2022-11-20T03:27:11.021Z,16.59
2022-11-20T03:28:11.012Z,16.58
2022-11-20T03:29:11.020Z,16.68
2022-11-20T03:30:11.020Z,16.69
2022-11-20T03:31:11.020Z,16.59
2022-11-20T03:32:11.012Z,16.68
2022-11-20T03:33:11.021Z,16.78
2022-11-20T03:34:11.011Z,16.78
2022-11-20T03:35:11.019Z,16.78
2022-11-20T03:36:11.011Z,16.68
2022-11-20T03:37:11.018Z,16.78
2022-11-20T03:38:11.011Z,16.78
2022-11-20T03:39:11.018Z,16.78
2022-11-20T03:40:11.011Z,16.78
2022-11-20T03:41:11.019Z,16.78
2022-11-20T03:42:11.011Z,16.78
2022-11-20T03:43:11.015Z,16.78
2022-11-20T03:44:11.008Z,16.78
2022-11-20T03:45:11.015Z,16.78
2022-11-20T03:46:11.008Z,16.69
2022-11-20T03:47:11.014Z,16.87
2022-11-20T03:48:11.010Z,16.88
2022-11-20T03:49:11.016Z,16.78
2022-11-20T03:50:11.006Z,16.88
2022-11-20T03:51:11.016Z,16.87
2022-11-20T03:52:11.005Z,16.68
2022-11-20T03:53:11.014Z,16.78
2022-11-20T03:54:11.011Z,16.78
2022-11-20T03:55:11.017Z,16.78
2022-11-20T03:56:11.003Z,16.78
2022-11-20T03:57:11.013Z,16.78
2022-11-20T03:58:11.005Z,16.87
2022-11-20T03:59:11.012Z,16.78
2022-11-20T04:00:11.004Z,16.78
2022-11-20T04:01:11.017Z,16.87
2022-11-20T04:02:11.052Z,16.87
2022-11-20T04:03:11.010Z,16.78
2022-11-20T04:04:11.005Z,16.78
2022-11-20T04:05:11.009Z,16.78
2022-11-20T04:06:11.002Z,16.88
2022-11-20T04:07:11.071Z,16.87
2022-11-20T04:08:11.001Z,16.78
2022-11-20T04:09:11.009Z,16.88
2022-11-20T04:10:11.002Z,16.87
2022-11-20T04:11:11.006Z,16.98
2022-11-20T04:12:11.000Z,16.78
2022-11-20T04:13:11.157Z,16.87
2022-11-20T04:14:11.001Z,16.88
2022-11-20T04:15:11.010Z,16.88
2022-11-20T04:16:10.998Z,16.87
2022-11-20T04:17:11.005Z,16.87
2022-11-20T04:18:10.998Z,16.78
2022-11-20T04:19:11.005Z,16.88
2022-11-20T04:20:10.998Z,16.87
2022-11-20T04:21:11.004Z,16.98
2022-11-20T04:22:10.998Z,16.88
2022-11-20T04:23:11.004Z,16.97
2022-11-20T04:24:10.995Z,16.87
2022-11-20T04:25:11.004Z,16.88
2022-11-20T04:26:10.995Z,16.98
2022-11-20T04:27:11.004Z,16.88
2022-11-20T04:28:10.994Z,16.88
2022-11-20T04:29:11.001Z,16.78
2022-11-20T04:30:10.995Z,16.88
2022-11-20T04:31:11.013Z,17.07
2022-11-20T04:32:10.992Z,16.97
2022-11-20T04:33:11.008Z,16.97
2022-11-20T04:34:10.995Z,16.97
2022-11-20T04:35:10.999Z,16.87
2022-11-20T04:36:10.993Z,16.98
2022-11-20T04:37:10.998Z,16.97
2022-11-20T04:38:10.993Z,16.78
2022-11-20T04:39:10.998Z,16.98
2022-11-20T04:40:10.993Z,16.97
2022-11-20T04:41:11.001Z,16.98
2022-11-20T04:42:10.997Z,16.97
2022-11-20T04:43:10.997Z,16.49
2022-11-20T04:44:10.989Z,16.87
2022-11-20T04:45:10.998Z,16.88
2022-11-20T04:46:10.990Z,16.49
2022-11-20T04:47:10.996Z,16.88
2022-11-20T04:48:10.995Z,16.97
2022-11-20T04:49:10.997Z,16.59
2022-11-20T04:50:11.032Z,16.68
2022-11-20T04:51:10.994Z,16.68
2022-11-20T04:52:10.986Z,16.69
2022-11-20T04:53:10.995Z,16.58
2022-11-20T04:54:10.988Z,16.59
2022-11-20T04:55:10.994Z,16.58
2022-11-20T04:56:10.988Z,16.78
2022-11-20T04:57:14.402Z,16.69
2022-11-20T04:58:10.985Z,16.68
2022-11-20T04:59:10.992Z,16.58
2022-11-20T05:00:10.985Z,16.69
2022-11-20T05:01:11.098Z,16.78
2022-11-20T05:02:10.984Z,16.49
2022-11-20T05:03:10.992Z,16.58
2022-11-20T05:04:10.984Z,16.68
2022-11-20T05:05:10.991Z,16.69
2022-11-20T05:06:10.984Z,16.68
2022-11-20T05:07:11.066Z,16.69
2022-11-20T05:08:10.983Z,16.69
2022-11-20T05:09:10.991Z,16.68
2022-11-20T05:10:10.983Z,16.69
2022-11-20T05:11:10.989Z,16.78
2022-11-20T05:12:10.982Z,16.78
2022-11-20T05:13:10.994Z,16.68
2022-11-20T05:14:10.983Z,16.78
2022-11-20T05:15:10.988Z,16.68
2022-11-20T05:16:10.980Z,16.68
2022-11-20T05:17:10.989Z,16.68
2022-11-20T05:18:10.980Z,16.59
2022-11-20T05:19:10.988Z,16.68
2022-11-20T05:20:10.983Z,16.58
2022-11-20T05:21:10.985Z,16.58
2022-11-20T05:22:10.981Z,16.39
2022-11-20T05:23:10.986Z,16.49
2022-11-20T05:24:10.977Z,16.49
2022-11-20T05:25:10.986Z,16.49
2022-11-20T05:26:10.977Z,16.49
2022-11-20T05:27:10.984Z,16.49
2022-11-20T05:28:10.978Z,16.58
2022-11-20T05:29:10.985Z,16.49
2022-11-20T05:30:10.980Z,16.68
2022-11-20T05:31:10.984Z,16.49
2022-11-20T05:32:10.976Z,16.49
2022-11-20T05:33:10.981Z,16.49
2022-11-20T05:34:10.977Z,16.68
2022-11-20T05:35:10.982Z,16.69
2022-11-20T05:36:10.975Z,16.39
2022-11-20T05:37:10.981Z,16.39
2022-11-20T05:38:10.973Z,16.58
2022-11-20T05:39:10.985Z,16.39
2022-11-20T05:40:10.973Z,16.39
2022-11-20T05:41:10.980Z,16.30
2022-11-20T05:42:10.974Z,16.39
2022-11-20T05:43:10.980Z,16.39
2022-11-20T05:44:10.972Z,16.30
2022-11-20T05:45:10.980Z,16.20
2022-11-20T05:46:10.972Z,16.39
2022-11-20T05:47:10.979Z,16.39
2022-11-20T05:48:10.973Z,16.30
2022-11-20T05:49:10.977Z,16.29
2022-11-20T05:50:10.975Z,16.29
2022-11-20T05:51:10.977Z,16.30
2022-11-20T05:52:10.970Z,16.20
2022-11-20T05:53:10.977Z,16.39
2022-11-20T05:54:10.970Z,16.20
2022-11-20T05:55:10.976Z,16.20
2022-11-20T05:56:10.972Z,16.20
2022-11-20T05:57:10.978Z,16.29
2022-11-20T05:58:10.970Z,16.11
2022-11-20T05:59:10.976Z,16.09
2022-11-20T06:00:10.966Z,16.09
2022-11-20T06:01:10.975Z,16.11
2022-11-20T06:02:10.967Z,16.29
2022-11-20T06:03:10.973Z,16.19
2022-11-20T06:04:10.967Z,16.29
2022-11-20T06:05:10.973Z,16.19
2022-11-20T06:06:10.966Z,16.29
2022-11-20T06:07:11.026Z,16.29
2022-11-20T06:08:10.964Z,16.19
2022-11-20T06:09:10.974Z,16.19
2022-11-20T06:10:10.964Z,16.19
2022-11-20T06:11:10.970Z,16.29
2022-11-20T06:12:10.963Z,16.09
2022-11-20T06:13:10.972Z,16.39
2022-11-20T06:14:10.964Z,16.29
2022-11-20T06:15:10.974Z,16.30
2022-11-20T06:16:10.964Z,16.20
2022-11-20T06:17:10.972Z,16.20
2022-11-20T06:18:10.967Z,16.19
2022-11-20T06:19:10.968Z,16.11
2022-11-20T06:20:10.963Z,16.30
2022-11-20T06:21:10.972Z,15.81
2022-11-20T06:22:10.960Z,16.11
2022-11-20T06:23:10.971Z,15.91
2022-11-20T06:24:10.960Z,15.91
2022-11-20T06:25:10.969Z,16.00
2022-11-20T06:26:10.963Z,15.81
2022-11-20T06:27:10.965Z,15.91
2022-11-20T06:28:10.959Z,15.81
2022-11-20T06:29:10.965Z,15.81
2022-11-20T06:30:10.959Z,15.91
2022-11-20T06:31:10.968Z,15.91
2022-11-20T06:32:10.958Z,15.91
2022-11-20T06:33:10.965Z,15.91
2022-11-20T06:34:10.961Z,15.91
2022-11-20T06:35:10.964Z,16.00
2022-11-20T06:36:11.249Z,15.91
2022-11-20T06:37:10.966Z,16.01
2022-11-20T06:38:10.955Z,15.91
2022-11-20T06:39:10.963Z,15.81
2022-11-20T06:40:10.955Z,15.81
2022-11-20T06:41:10.966Z,15.81
2022-11-20T06:42:10.956Z,16.01
2022-11-20T06:43:10.964Z,15.91
2022-11-20T06:44:10.954Z,15.91
2022-11-20T06:45:10.963Z,15.91
2022-11-20T06:46:10.953Z,15.81
2022-11-20T06:47:10.960Z,15.91
2022-11-20T06:48:10.951Z,15.81
2022-11-20T06:49:10.959Z,15.91
2022-11-20T06:50:10.954Z,15.91
2022-11-20T06:51:10.959Z,15.91
2022-11-20T06:52:10.951Z,16.01
2022-11-20T06:53:10.960Z,15.91
2022-11-20T06:54:10.964Z,15.91
2022-11-20T06:55:10.958Z,15.81
2022-11-20T06:56:10.953Z,15.91
2022-11-20T06:57:10.958Z,15.91
2022-11-20T06:58:10.949Z,16.00
2022-11-20T06:59:10.958Z,16.01
2022-11-20T07:00:10.951Z,16.01
2022-11-20T07:01:11.072Z,15.91
2022-11-20T07:02:10.949Z,15.91
2022-11-20T07:03:10.954Z,15.91
2022-11-20T07:04:10.947Z,16.01
2022-11-20T07:05:10.956Z,15.91
2022-11-20T07:06:10.949Z,15.91
2022-11-20T07:07:11.024Z,16.00
2022-11-20T07:08:10.950Z,15.91
2022-11-20T07:09:21.787Z,15.91
2022-11-20T07:10:10.958Z,15.91
2022-11-20T07:11:10.946Z,15.91
2022-11-20T07:12:10.952Z,16.01
2022-11-20T07:13:10.946Z,16.00
2022-11-20T07:14:11.103Z,16.01
2022-11-20T07:15:10.945Z,16.11
2022-11-20T07:16:10.952Z,15.91
2022-11-20T07:17:10.944Z,16.01
2022-11-20T07:18:10.952Z,16.01
2022-11-20T07:19:10.942Z,16.01
2022-11-20T07:20:10.951Z,16.01
2022-11-20T07:21:10.945Z,15.91
2022-11-20T07:22:10.950Z,16.01
2022-11-20T07:23:10.942Z,16.01
2022-11-20T07:24:10.949Z,16.00
2022-11-20T07:25:10.942Z,16.11
2022-11-20T07:26:10.951Z,16.09
2022-11-20T07:27:10.941Z,16.20
2022-11-20T07:28:10.947Z,16.00
2022-11-20T07:29:10.941Z,16.19
2022-11-20T07:30:10.950Z,16.11
2022-11-20T07:31:15.959Z,16.11
2022-11-20T07:32:10.947Z,16.01
2022-11-20T07:33:10.941Z,16.01
2022-11-20T07:34:10.949Z,15.81
2022-11-20T07:35:10.938Z,15.91
2022-11-20T07:36:10.947Z,16.00
2022-11-20T07:37:10.939Z,16.00
2022-11-20T07:38:10.945Z,16.00
2022-11-20T07:39:10.936Z,15.91
2022-11-20T07:40:10.944Z,16.00
2022-11-20T07:41:10.938Z,16.00
2022-11-20T07:42:10.944Z,16.01
2022-11-20T07:43:10.935Z,16.00
2022-11-20T07:44:10.942Z,15.91
2022-11-20T07:45:10.942Z,15.91
2022-11-20T07:46:10.945Z,15.91
2022-11-20T07:47:10.935Z,16.00
2022-11-20T07:48:10.942Z,15.91
2022-11-20T07:49:10.937Z,16.01
2022-11-20T07:50:10.944Z,16.01
2022-11-20T07:51:10.934Z,15.91
2022-11-20T07:52:10.944Z,16.00
2022-11-20T07:53:10.935Z,15.91
2022-11-20T07:54:10.940Z,16.11
2022-11-20T07:55:10.935Z,16.01
2022-11-20T07:56:10.939Z,15.91
2022-11-20T07:57:10.930Z,16.00
2022-11-20T07:58:10.945Z,15.91
2022-11-20T07:59:10.930Z,16.01
2022-11-20T08:00:10.940Z,16.01
2022-11-20T08:01:10.986Z,16.00
2022-11-20T08:02:10.938Z,16.00
2022-11-20T08:03:10.933Z,15.91
2022-11-20T08:04:10.937Z,16.01
2022-11-20T08:05:10.943Z,16.01
2022-11-20T08:06:10.939Z,15.91
2022-11-20T08:07:10.961Z,16.11
2022-11-20T08:08:10.935Z,16.01
2022-11-20T08:09:10.928Z,16.01
2022-11-20T08:10:10.937Z,16.01
2022-11-20T08:11:10.928Z,16.01
2022-11-20T08:12:10.935Z,15.91
2022-11-20T08:13:10.932Z,16.01
2022-11-20T08:14:11.086Z,16.00
2022-11-20T08:15:13.257Z,15.91
2022-11-20T08:16:10.935Z,16.00
2022-11-20T08:17:10.926Z,16.00
2022-11-20T08:19:10.925Z,16.11
2022-11-20T08:20:10.933Z,15.91
2022-11-20T08:21:10.927Z,16.00
2022-11-20T08:22:10.932Z,16.00
2022-11-20T08:23:10.923Z,16.01
2022-11-20T08:24:10.930Z,16.11
2022-11-20T08:25:10.924Z,16.11
2022-11-20T08:26:10.931Z,15.91
2022-11-20T08:27:10.922Z,16.20
2022-11-20T08:28:20.135Z,16.01
2022-11-20T08:29:10.922Z,16.00
2022-11-20T08:30:10.934Z,16.11
2022-11-20T08:31:10.922Z,15.91
2022-11-20T08:32:10.928Z,16.09
2022-11-20T08:33:10.920Z,16.09
2022-11-20T08:34:14.924Z,16.01
2022-11-20T08:35:10.921Z,16.09
2022-11-20T08:36:10.927Z,16.09
2022-11-20T08:37:10.921Z,16.01
2022-11-20T08:38:10.927Z,16.00
2022-11-20T08:39:10.919Z,16.20
2022-11-20T08:40:10.926Z,16.00
2022-11-20T08:41:10.918Z,16.19
2022-11-20T08:42:10.927Z,16.11
2022-11-20T08:43:10.919Z,16.20
2022-11-20T08:44:10.924Z,16.19
2022-11-20T08:45:10.916Z,16.20
2022-11-20T08:46:10.924Z,16.01
2022-11-20T08:47:10.917Z,16.20
2022-11-20T08:48:10.923Z,16.20
2022-11-20T08:49:10.916Z,16.20
2022-11-20T08:50:10.923Z,16.09
2022-11-20T08:51:10.916Z,16.19
2022-11-20T08:52:10.922Z,16.11
2022-11-20T08:53:10.916Z,16.20
2022-11-20T08:54:10.927Z,16.29
2022-11-20T08:55:10.918Z,16.30
2022-11-20T08:56:10.922Z,16.29
2022-11-20T08:57:10.913Z,16.29
2022-11-20T08:58:10.922Z,16.29
2022-11-20T08:59:26.916Z,16.29
2022-11-20T09:00:11.182Z,16.30
2022-11-20T09:01:10.938Z,16.29
2022-11-20T09:02:10.919Z,16.20
2022-11-20T09:03:10.912Z,16.29
2022-11-20T09:04:10.918Z,16.30
2022-11-20T09:05:10.919Z,16.29
2022-11-20T09:06:10.918Z,16.20
2022-11-20T09:07:10.953Z,16.39
2022-11-20T09:08:10.920Z,16.29
2022-11-20T09:09:10.910Z,16.20
2022-11-20T09:10:23.549Z,16.11
2022-11-20T09:11:10.908Z,15.81
2022-11-20T09:12:10.916Z,16.09
2022-11-20T09:13:10.909Z,16.19
2022-11-20T09:14:10.914Z,16.09
2022-11-20T09:15:10.911Z,16.39
2022-11-20T09:16:10.914Z,15.72
2022-11-20T09:17:10.908Z,15.81
2022-11-20T09:18:10.914Z,16.19
2022-11-20T09:19:34.480Z,16.39
2022-11-20T09:20:10.913Z,15.71
2022-11-20T09:21:10.992Z,15.91
2022-11-20T09:22:10.913Z,15.81
2022-11-20T09:23:10.904Z,16.20
2022-11-20T09:24:10.913Z,15.91
2022-11-20T09:25:10.908Z,15.91
2022-11-20T09:26:10.912Z,15.81
2022-11-20T09:27:10.903Z,15.81
2022-11-20T09:28:10.911Z,15.81
2022-11-20T09:29:10.904Z,16.00
2022-11-20T09:30:10.912Z,15.81
2022-11-20T09:31:10.904Z,15.81
2022-11-20T09:32:10.909Z,16.00
2022-11-20T09:33:10.903Z,16.00
2022-11-20T09:34:10.912Z,15.91
2022-11-20T09:35:10.902Z,15.91
2022-11-20T09:36:10.909Z,15.91
2022-11-20T09:37:10.900Z,15.91
2022-11-20T09:38:10.909Z,16.01
2022-11-20T09:39:10.901Z,15.91
2022-11-20T09:40:10.908Z,15.81
2022-11-20T09:41:10.899Z,15.91
2022-11-20T09:42:10.907Z,16.00
2022-11-20T09:43:10.898Z,15.91
2022-11-20T09:44:10.906Z,15.91
2022-11-20T09:45:10.899Z,16.00
2022-11-20T09:46:10.906Z,15.91
2022-11-20T09:47:10.897Z,15.91
2022-11-20T09:48:10.905Z,16.00
2022-11-20T09:49:10.898Z,16.01
2022-11-20T09:50:10.907Z,16.01
2022-11-20T09:51:10.897Z,16.01
2022-11-20T09:52:10.902Z,15.91
2022-11-20T09:53:10.895Z,15.91
2022-11-20T09:54:10.902Z,15.91
2022-11-20T09:55:10.894Z,15.91
2022-11-20T09:56:10.903Z,15.91
2022-11-20T09:57:10.895Z,15.91
2022-11-20T09:58:10.902Z,15.91
2022-11-20T09:59:10.892Z,15.81
2022-11-20T10:00:10.901Z,16.00
2022-11-20T10:01:10.978Z,15.91
2022-11-20T10:02:10.900Z,15.91
2022-11-20T10:03:10.892Z,15.81
2022-11-20T10:04:10.901Z,15.81
2022-11-20T10:05:10.892Z,15.72
2022-11-20T10:06:10.899Z,15.91
2022-11-20T10:07:31.457Z,15.91
2022-11-20T10:08:11.007Z,15.91
2022-11-20T10:09:10.890Z,15.71
2022-11-20T10:10:10.899Z,15.71
2022-11-20T10:11:10.895Z,15.71
2022-11-20T10:12:10.898Z,15.62
2022-11-20T10:13:10.898Z,15.81
2022-11-20T10:14:10.911Z,15.91
2022-11-20T10:15:10.887Z,15.91
2022-11-20T10:16:10.895Z,15.72
2022-11-20T10:17:10.890Z,15.62
2022-11-20T10:18:10.895Z,15.91
2022-11-20T10:19:10.886Z,15.72
2022-11-20T10:20:10.894Z,15.81
2022-11-20T10:21:10.888Z,16.00
2022-11-20T10:22:10.895Z,15.81
2022-11-20T10:23:10.887Z,15.81
2022-11-20T10:24:10.893Z,15.81
2022-11-20T10:25:10.886Z,15.71
2022-11-20T10:26:10.892Z,15.72
2022-11-20T10:27:10.884Z,15.72
2022-11-20T10:28:10.891Z,15.81
2022-11-20T10:29:10.884Z,16.00
2022-11-20T10:30:10.892Z,15.91
2022-11-20T10:31:10.884Z,15.81
2022-11-20T10:32:10.890Z,15.81
2022-11-20T10:33:10.883Z,15.81
2022-11-20T10:34:12.444Z,15.71
2022-11-20T10:35:10.881Z,15.81
2022-11-20T10:36:10.888Z,15.71
2022-11-20T10:37:10.881Z,15.81
2022-11-20T10:38:10.891Z,15.81
2022-11-20T10:39:10.881Z,15.91
2022-11-20T10:40:10.889Z,15.72
2022-11-20T10:41:10.880Z,15.71
2022-11-20T10:42:10.888Z,16.01
2022-11-20T10:43:10.879Z,15.81
2022-11-20T10:44:10.887Z,15.72
2022-11-20T10:45:10.879Z,15.81
2022-11-20T10:46:10.886Z,15.91
2022-11-20T10:47:10.878Z,16.01
2022-11-20T10:48:10.887Z,16.00
2022-11-20T10:49:10.879Z,15.91
2022-11-20T10:50:10.886Z,16.01
2022-11-20T10:51:10.881Z,16.00
2022-11-20T10:52:10.883Z,15.81
2022-11-20T10:53:10.876Z,15.81
2022-11-20T10:54:10.888Z,15.81
2022-11-20T10:55:10.876Z,16.01
2022-11-20T10:56:10.882Z,16.00
2022-11-20T10:57:10.880Z,15.91
2022-11-20T10:58:10.883Z,15.91
2022-11-20T10:59:10.875Z,16.01
2022-11-20T11:00:10.884Z,15.81
2022-11-20T11:01:10.911Z,15.81
2022-11-20T11:02:10.881Z,15.81
2022-11-20T11:03:10.873Z,16.00
2022-11-20T11:04:10.881Z,15.91
2022-11-20T11:05:14.379Z,15.91
2022-11-20T11:06:10.880Z,15.91
2022-11-20T11:07:10.891Z,16.00
2022-11-20T11:08:10.879Z,15.91
2022-11-20T11:09:10.872Z,16.01
2022-11-20T11:10:10.880Z,15.81
2022-11-20T11:11:10.870Z,15.91
2022-11-20T11:12:10.880Z,15.71
2022-11-20T11:13:10.871Z,15.81
2022-11-20T11:14:10.877Z,15.81
2022-11-20T11:15:10.871Z,15.71
2022-11-20T11:16:10.877Z,16.00
2022-11-20T11:17:10.869Z,16.00
2022-11-20T11:18:10.876Z,15.52
2022-11-20T11:19:10.867Z,15.71
2022-11-20T11:20:10.907Z,15.62
2022-11-20T11:21:10.868Z,15.71
2022-11-20T11:22:10.875Z,15.71
2022-11-20T11:23:10.866Z,15.61
2022-11-20T11:24:40.513Z,15.71
2022-11-20T11:25:10.874Z,15.71
2022-11-20T11:26:10.867Z,15.71
2022-11-20T11:27:16.479Z,15.71
2022-11-20T11:28:10.865Z,15.61
2022-11-20T11:29:10.871Z,15.71
2022-11-20T11:30:10.866Z,15.52
2022-11-20T11:31:10.871Z,15.71
2022-11-20T11:32:10.863Z,15.61
2022-11-20T11:33:10.871Z,15.81
2022-11-20T11:34:10.863Z,15.61
2022-11-20T11:35:10.869Z,15.61
2022-11-20T11:36:10.862Z,15.62
2022-11-20T11:37:10.870Z,15.62
2022-11-20T11:38:10.861Z,15.61
2022-11-20T11:39:10.868Z,15.42
2022-11-20T11:40:26.408Z,15.61
2022-11-20T11:41:10.868Z,15.71
2022-11-20T11:42:10.860Z,15.42
2022-11-20T11:43:10.867Z,15.52
2022-11-20T11:44:10.859Z,15.72
2022-11-20T11:45:10.866Z,15.52
2022-11-20T11:46:10.861Z,15.71
2022-11-20T11:47:10.867Z,15.52
2022-11-20T11:48:10.857Z,15.52
2022-11-20T11:49:10.866Z,15.52
2022-11-20T11:50:10.857Z,15.52
2022-11-20T11:51:10.864Z,15.42
2022-11-20T11:52:10.857Z,15.52
2022-11-20T11:53:10.866Z,15.22
2022-11-20T11:54:10.861Z,15.32
2022-11-20T11:55:11.928Z,15.42
2022-11-20T11:56:10.855Z,15.03
2022-11-20T11:57:10.862Z,15.52
2022-11-20T11:58:10.856Z,15.61
2022-11-20T11:59:10.861Z,15.03
2022-11-20T12:00:10.923Z,15.12
2022-11-20T12:01:10.861Z,15.04
2022-11-20T12:02:10.917Z,15.12
2022-11-20T12:03:10.861Z,15.03
2022-11-20T12:04:10.853Z,15.22
2022-11-20T12:05:10.861Z,15.03
2022-11-20T12:06:10.853Z,15.03
2022-11-20T12:07:38.694Z,15.22
2022-11-20T12:08:12.711Z,15.32
2022-11-20T12:09:10.857Z,15.22
2022-11-20T12:10:10.943Z,15.22
2022-11-20T12:11:10.857Z,15.22
2022-11-20T12:12:10.852Z,15.22
2022-11-20T12:13:10.856Z,15.23
2022-11-20T12:14:10.853Z,15.22
2022-11-20T12:15:10.856Z,15.32
2022-11-20T12:16:10.848Z,15.22
2022-11-20T12:17:10.856Z,15.32
2022-11-20T12:18:10.852Z,15.32
2022-11-20T12:19:10.855Z,15.33
2022-11-20T12:20:10.848Z,15.33
2022-11-20T12:21:10.854Z,15.32
2022-11-20T12:22:10.855Z,15.22
2022-11-20T12:23:10.853Z,14.94
2022-11-20T12:24:10.849Z,15.32
2022-11-20T12:25:10.852Z,14.94
2022-11-20T12:26:10.845Z,14.94
2022-11-20T12:27:10.851Z,14.84
2022-11-20T12:28:10.846Z,14.94
2022-11-20T12:29:10.853Z,14.94
2022-11-20T12:30:10.848Z,14.94
2022-11-20T12:31:10.853Z,14.94
2022-11-20T12:32:10.843Z,15.03
2022-11-20T12:33:10.863Z,15.03
2022-11-20T12:34:10.843Z,15.03
2022-11-20T12:35:11.688Z,14.94
2022-11-20T12:36:10.845Z,15.03
2022-11-20T12:37:10.849Z,15.03
2022-11-20T12:38:10.846Z,15.04
2022-11-20T12:39:10.849Z,15.12
2022-11-20T12:40:10.841Z,15.12
2022-11-20T12:41:10.849Z,15.03
2022-11-20T12:42:10.839Z,15.04
2022-11-20T12:43:10.845Z,15.03
2022-11-20T12:44:10.840Z,15.03
2022-11-20T12:45:10.846Z,15.22
2022-11-20T12:46:10.838Z,15.32
2022-11-20T12:47:10.844Z,15.03
2022-11-20T12:48:10.838Z,15.12
2022-11-20T12:49:10.845Z,15.22
2022-11-20T12:50:10.837Z,15.32
2022-11-20T12:51:15.491Z,15.32
2022-11-20T12:52:10.836Z,15.22
2022-11-20T12:53:10.844Z,15.42